createdAt,value
2017-04-21T00:00:49.321Z,85.45
2017-04-21T00:02:01.860Z,85.17
2017-04-21T00:03:14.391Z,84.88
2017-04-21T00:04:26.927Z,84.98
2017-04-21T00:05:39.448Z,85.26
2017-04-21T00:06:51.967Z,85.45
2017-04-21T00:08:04.489Z,85.26
2017-04-21T00:09:17.024Z,85.55
2017-04-21T00:10:29.534Z,85.17
2017-04-21T00:11:42.105Z,85.26
2017-04-21T00:12:54.971Z,85.17
2017-04-21T00:14:07.572Z,85.36
2017-04-21T00:15:20.102Z,85.07
2017-04-21T00:16:32.620Z,85.26
2017-04-21T00:17:45.123Z,85.07
2017-04-21T00:18:57.687Z,85.36
2017-04-21T00:20:10.223Z,86.21
2017-04-21T00:21:22.726Z,85.83
2017-04-21T00:22:35.226Z,85.83
2017-04-21T00:23:47.463Z,85.17
2017-04-21T00:24:59.994Z,85.74
2017-04-21T00:26:12.513Z,85.93
2017-04-21T00:27:25.061Z,86.02
2017-04-21T00:28:37.602Z,86.11
2017-04-21T00:29:50.145Z,85.45
2017-04-21T00:31:03.061Z,85.17
2017-04-21T00:32:15.611Z,85.74
2017-04-21T00:33:28.195Z,85.74
2017-04-21T00:34:40.723Z,86.11
2017-04-21T00:35:53.233Z,85.93
2017-04-21T00:37:05.790Z,86.11
2017-04-21T00:38:18.319Z,85.55
2017-04-21T00:39:30.558Z,85.55
2017-04-21T00:40:43.057Z,86.21
2017-04-21T00:41:55.599Z,85.93
2017-04-21T00:43:08.120Z,86.21
2017-04-21T00:44:20.620Z,86.49
2017-04-21T00:45:33.149Z,86.59
2017-04-21T00:46:45.672Z,86.49
2017-04-21T00:47:57.887Z,86.59
2017-04-21T00:49:10.085Z,86.68
2017-04-21T00:50:22.624Z,86.59
2017-04-21T00:51:35.133Z,86.4
2017-04-21T00:52:47.755Z,86.11
2017-04-21T00:53:59.987Z,85.93
2017-04-21T00:55:12.238Z,86.11
2017-04-21T00:56:24.782Z,86.02
2017-04-21T00:57:37.280Z,86.49
2017-04-21T00:58:49.804Z,86.21
2017-04-21T01:00:02.349Z,86.68
2017-04-21T01:01:14.891Z,86.21
2017-04-21T01:02:27.390Z,86.49
2017-04-21T01:03:39.930Z,86.21
2017-04-21T01:04:52.479Z,86.4
2017-04-21T01:06:04.996Z,86.07
2017-04-21T01:07:17.221Z,86.07
2017-04-21T01:08:30.013Z,86.07
2017-04-21T01:09:42.516Z,86.07
2017-04-21T01:10:55.301Z,86.07
2017-04-21T01:12:07.796Z,86.16
2017-04-21T01:13:20.287Z,86.55
2017-04-21T01:14:32.823Z,86.45
2017-04-21T01:15:45.342Z,86.45
2017-04-21T01:16:57.870Z,85.78
2017-04-21T01:18:10.377Z,86.07
2017-04-21T01:19:22.908Z,85.22
2017-04-21T01:20:35.451Z,85.5
2017-04-21T01:21:47.952Z,85.69
2017-04-21T01:23:00.460Z,85.88
2017-04-21T01:24:12.988Z,86.64
2017-04-21T01:25:25.838Z,86.55
2017-04-21T01:26:38.357Z,86.55
2017-04-21T01:27:51.044Z,87.12
2017-04-21T01:29:03.598Z,86.93
2017-04-21T01:30:16.366Z,86.93
2017-04-21T01:31:28.892Z,87.12
2017-04-21T01:32:41.437Z,87.21
2017-04-21T01:33:53.962Z,86.93
2017-04-21T01:35:06.498Z,86.93
2017-04-21T01:36:19.023Z,87.4
2017-04-21T01:37:31.536Z,86.74
2017-04-21T01:38:43.735Z,87.49
2017-04-21T01:39:56.279Z,87.12
2017-04-21T01:41:08.789Z,87.4
2017-04-21T01:42:21.045Z,86.6
2017-04-21T01:43:33.274Z,87.07
2017-04-21T01:44:45.789Z,86.98
2017-04-21T01:45:58.511Z,87.59
2017-04-21T01:47:10.153Z,87.64
2017-04-21T01:48:22.412Z,86.88
2017-04-21T01:49:34.934Z,87.16
2017-04-21T01:50:47.149Z,87.45
2017-04-21T01:51:59.669Z,87.35
2017-04-21T01:53:12.182Z,87.45
2017-04-21T01:54:24.409Z,87.45
2017-04-21T01:55:36.910Z,87.26
2017-04-21T01:56:49.145Z,87.35
2017-04-21T01:58:01.667Z,87.73
2017-04-21T01:59:14.190Z,87.54
2017-04-21T02:00:26.741Z,88.02
2017-04-21T02:01:39.265Z,88.21
2017-04-21T02:02:51.808Z,87.35
2017-04-21T02:04:04.231Z,87.35
2017-04-21T02:05:16.741Z,88.21
2017-04-21T02:06:29.270Z,87.92
2017-04-21T02:07:41.823Z,87.64
2017-04-21T02:08:54.067Z,88.02
2017-04-21T02:10:06.611Z,88.02
2017-04-21T02:11:19.146Z,88.02
2017-04-21T02:12:31.675Z,87.92
2017-04-21T02:13:43.876Z,87.64
2017-04-21T02:14:56.420Z,87.35
2017-04-21T02:16:08.967Z,87.54
2017-04-21T02:17:21.508Z,87.64
2017-04-21T02:18:33.713Z,87.35
2017-04-21T02:19:46.229Z,87.64
2017-04-21T02:20:58.768Z,88.11
2017-04-21T02:22:11.321Z,87.54
2017-04-21T02:23:23.893Z,87.54
2017-04-21T02:24:36.205Z,87.45
2017-04-21T02:25:48.730Z,87.35
2017-04-21T02:27:01.272Z,87.73
2017-04-21T02:28:13.788Z,87.54
2017-04-21T02:29:26.365Z,87.26
2017-04-21T02:30:38.905Z,87.83
2017-04-21T02:31:51.131Z,87.54
2017-04-21T02:33:03.648Z,87.54
2017-04-21T02:34:16.155Z,87.45
2017-04-21T02:35:28.917Z,87.45
2017-04-21T02:36:41.161Z,87.54
2017-04-21T02:37:53.665Z,87.54
2017-04-21T02:39:06.187Z,87.35
2017-04-21T02:40:18.406Z,87.83
2017-04-21T02:41:30.923Z,88.49
2017-04-21T02:42:43.543Z,87.54
2017-04-21T02:43:56.100Z,87.45
2017-04-21T02:45:08.295Z,87.73
2017-04-21T02:46:20.815Z,87.73
2017-04-21T02:47:33.356Z,88.11
2017-04-21T02:48:45.873Z,88.21
2017-04-21T02:49:58.402Z,87.92
2017-04-21T02:51:10.948Z,88.11
2017-04-21T02:52:22.890Z,88.02
2017-04-21T02:53:35.115Z,88.11
2017-04-21T02:54:47.653Z,87.54
2017-04-21T02:55:59.882Z,87.73
2017-04-21T02:57:12.679Z,87.64
2017-04-21T02:58:25.212Z,87.64
2017-04-21T02:59:37.718Z,87.64
2017-04-21T03:00:49.948Z,87.83
2017-04-21T03:02:02.141Z,87.07
2017-04-21T03:03:14.981Z,87.64
2017-04-21T03:04:27.218Z,88.3
2017-04-21T03:05:39.442Z,88.11
2017-04-21T03:06:51.984Z,87.92
2017-04-21T03:08:04.543Z,87.92
2017-04-21T03:09:17.075Z,87.83
2017-04-21T03:10:29.633Z,87.64
2017-04-21T03:11:41.870Z,87.54
2017-04-21T03:12:54.398Z,87.64
2017-04-21T03:14:06.934Z,88.11
2017-04-21T03:15:19.467Z,88.11
2017-04-21T03:16:32.013Z,87.92
2017-04-21T03:17:44.539Z,88.21
2017-04-21T03:18:56.468Z,88.25
2017-04-21T03:20:09.049Z,88.06
2017-04-21T03:21:21.870Z,88.16
2017-04-21T03:22:34.513Z,88.16
2017-04-21T03:23:47.063Z,87.59
2017-04-21T03:24:59.280Z,87.77
2017-04-21T03:26:11.805Z,88.44
2017-04-21T03:27:24.030Z,87.59
2017-04-21T03:28:36.265Z,88.44
2017-04-21T03:29:48.764Z,88.06
2017-04-21T03:31:01.305Z,88.16
2017-04-21T03:32:13.522Z,88.35
2017-04-21T03:33:26.052Z,88.44
2017-04-21T03:34:38.589Z,87.59
2017-04-21T03:35:50.821Z,88.44
2017-04-21T03:37:03.343Z,87.77
2017-04-21T03:38:15.853Z,87.59
2017-04-21T03:39:28.456Z,88.06
2017-04-21T03:40:41.260Z,87.3
2017-04-21T03:41:53.781Z,87.4
2017-04-21T03:43:05.711Z,87.59
2017-04-21T03:44:18.214Z,87.59
2017-04-21T03:45:30.710Z,87.21
2017-04-21T03:46:43.252Z,87.87
2017-04-21T03:47:55.781Z,87.4
2017-04-21T03:49:08.319Z,87.21
2017-04-21T03:50:20.844Z,87.87
2017-04-21T03:51:33.345Z,87.3
2017-04-21T03:52:45.864Z,87.3
2017-04-21T03:53:58.407Z,87.68
2017-04-21T03:55:10.932Z,87.97
2017-04-21T03:56:23.148Z,87.3
2017-04-21T03:57:35.736Z,87.59
2017-04-21T03:58:47.962Z,87.4
2017-04-21T04:00:00.506Z,87.77
2017-04-21T04:01:13.057Z,87.87
2017-04-21T04:02:25.870Z,88.06
2017-04-21T04:03:38.417Z,87.68
2017-04-21T04:04:50.941Z,87.87
2017-04-21T04:06:03.466Z,87.3
2017-04-21T04:07:15.988Z,88.16
2017-04-21T04:08:28.810Z,87.77
2017-04-21T04:09:41.347Z,87.77
2017-04-21T04:10:53.859Z,87.4
2017-04-21T04:12:06.063Z,87.59
2017-04-21T04:13:18.571Z,87.77
2017-04-21T04:14:31.069Z,87.77
2017-04-21T04:15:43.659Z,87.77
2017-04-21T04:16:56.250Z,87.77
2017-04-21T04:18:08.776Z,87.49
2017-04-21T04:19:21.280Z,88.35
2017-04-21T04:20:33.471Z,87.77
2017-04-21T04:21:45.993Z,87.59
2017-04-21T04:22:58.505Z,87.77
2017-04-21T04:24:11.000Z,87.68
2017-04-21T04:25:23.519Z,88.35
2017-04-21T04:26:36.038Z,87.87
2017-04-21T04:27:48.585Z,87.4
2017-04-21T04:29:01.113Z,87.68
2017-04-21T04:30:13.951Z,87.87
2017-04-21T04:31:26.455Z,87.77
2017-04-21T04:32:38.975Z,87.4
2017-04-21T04:33:51.896Z,87.77
2017-04-21T04:35:04.447Z,87.59
2017-04-21T04:36:16.973Z,87.97
2017-04-21T04:37:29.489Z,87.25
2017-04-21T04:38:42.023Z,87.3
2017-04-21T04:39:54.543Z,87.77
2017-04-21T04:41:07.039Z,87.92
2017-04-21T04:42:19.239Z,87.82
2017-04-21T04:43:31.459Z,87.63
2017-04-21T04:44:44.006Z,87.35
2017-04-21T04:45:56.227Z,86.78
2017-04-21T04:47:08.469Z,87.16
2017-04-21T04:48:20.998Z,87.25
2017-04-21T04:49:33.545Z,87.06
2017-04-21T04:50:46.393Z,86.4
2017-04-21T04:51:59.061Z,86.4
2017-04-21T04:53:11.282Z,86.68
2017-04-21T04:54:23.777Z,86.49
2017-04-21T04:55:36.302Z,86.4
2017-04-21T04:56:48.547Z,86.49
2017-04-21T04:58:01.094Z,86.49
2017-04-21T04:59:13.603Z,86.3
2017-04-21T05:00:26.099Z,86.4
2017-04-21T05:01:38.627Z,86.78
2017-04-21T05:02:50.894Z,86.59
2017-04-21T05:04:03.440Z,86.49
2017-04-21T05:05:15.670Z,87.16
2017-04-21T05:06:27.906Z,87.3
2017-04-21T05:07:40.411Z,86.91
2017-04-21T05:08:52.925Z,87.01
2017-04-21T05:10:05.618Z,87.2
2017-04-21T05:11:18.139Z,86.44
2017-04-21T05:12:30.682Z,86.63
2017-04-21T05:13:43.214Z,87.49
2017-04-21T05:14:55.759Z,87.2
2017-04-21T05:16:08.270Z,86.72
2017-04-21T05:17:20.502Z,86.91
2017-04-21T05:18:33.042Z,86.54
2017-04-21T05:19:45.566Z,86.63
2017-04-21T05:20:58.105Z,86.16
2017-04-21T05:22:10.609Z,86.07
2017-04-21T05:23:23.158Z,86.07
2017-04-21T05:24:35.703Z,86.07
2017-04-21T05:25:48.273Z,86.35
2017-04-21T05:27:00.795Z,86.07
2017-04-21T05:28:13.439Z,86.3
2017-04-21T05:29:26.259Z,86.11
2017-04-21T05:30:38.808Z,86.11
2017-04-21T05:31:51.326Z,86.3
2017-04-21T05:33:03.841Z,86.11
2017-04-21T05:34:16.346Z,86.2
2017-04-21T05:35:28.609Z,86.3
2017-04-21T05:36:41.130Z,86.01
2017-04-21T05:37:53.650Z,85.53
2017-04-21T05:39:06.192Z,85.63
2017-04-21T05:40:18.672Z,85.72
2017-04-21T05:41:31.217Z,84.59
2017-04-21T05:42:43.423Z,84.49
2017-04-21T05:43:56.109Z,84.4
2017-04-21T05:45:08.327Z,84.4
2017-04-21T05:46:20.968Z,84.25
2017-04-21T05:47:33.482Z,84.25
2017-04-21T05:48:45.997Z,84.44
2017-04-21T05:49:58.533Z,83.78
2017-04-21T05:51:11.038Z,84.06
2017-04-21T05:52:23.583Z,83.39
2017-04-21T05:53:35.830Z,84.06
2017-04-21T05:54:48.052Z,83.68
2017-04-21T05:56:00.612Z,83.2
2017-04-21T05:57:13.135Z,82.16
2017-04-21T05:58:25.685Z,81.78
2017-04-21T05:59:38.211Z,81.78
2017-04-21T06:00:50.407Z,81.78
2017-04-21T06:02:02.040Z,81.21
2017-04-21T06:03:14.723Z,81.21
2017-04-21T06:04:27.393Z,80.45
2017-04-21T06:05:40.113Z,80.64
2017-04-21T06:06:52.632Z,81.35
2017-04-21T06:08:05.145Z,81.16
2017-04-21T06:09:17.652Z,80.87
2017-04-21T06:10:30.174Z,79.83
2017-04-21T06:11:42.686Z,79.63
2017-04-21T06:12:55.213Z,80.58
2017-04-21T06:14:07.749Z,80.11
2017-04-21T06:15:20.253Z,80.21
2017-04-21T06:16:32.766Z,80.77
2017-04-21T06:17:45.295Z,80.77
2017-04-21T06:18:57.833Z,79.92
2017-04-21T06:20:10.357Z,79.58
2017-04-21T06:21:22.582Z,79.3
2017-04-21T06:22:34.849Z,78.06
2017-04-21T06:23:47.649Z,77.39
2017-04-21T06:25:00.174Z,77.58
2017-04-21T06:26:12.737Z,77.77
2017-04-21T06:27:24.987Z,77.58
2017-04-21T06:28:37.512Z,77.49
2017-04-21T06:29:50.058Z,77.58
2017-04-21T06:31:02.592Z,77.68
2017-04-21T06:32:15.112Z,77.68
2017-04-21T06:33:27.367Z,77.97
2017-04-21T06:34:39.908Z,78.06
2017-04-21T06:35:52.133Z,78.34
2017-04-21T06:37:04.659Z,79.3
2017-04-21T06:38:16.893Z,78.91
2017-04-21T06:39:29.146Z,79.58
2017-04-21T06:40:41.684Z,79.3
2017-04-21T06:41:54.193Z,79.81
2017-04-21T06:43:06.709Z,79.11
2017-04-21T06:44:18.923Z,78.96
2017-04-21T06:45:31.418Z,78.77
2017-04-21T06:46:43.943Z,79.24
2017-04-21T06:47:56.487Z,78.77
2017-04-21T06:49:09.013Z,78.67
2017-04-21T06:50:21.538Z,78.48
2017-04-21T06:51:34.055Z,78.29
2017-04-21T06:52:46.569Z,78.38
2017-04-21T06:53:59.073Z,79.05
2017-04-21T06:55:11.285Z,78.48
2017-04-21T06:56:23.794Z,78.23
2017-04-21T06:57:36.356Z,78.33
2017-04-21T06:58:48.876Z,78.42
2017-04-21T07:00:01.422Z,78.99
2017-04-21T07:01:13.994Z,79.09
2017-04-21T07:02:26.536Z,78.23
2017-04-21T07:03:39.064Z,78.23
2017-04-21T07:04:51.310Z,78.23
2017-04-21T07:06:03.859Z,77.66
2017-04-21T07:07:16.402Z,77.56
2017-04-21T07:08:28.969Z,77.66
2017-04-21T07:09:41.489Z,78.56
2017-04-21T07:10:54.043Z,77.8
2017-04-21T07:12:06.285Z,77.22
2017-04-21T07:13:18.835Z,77.22
2017-04-21T07:14:31.381Z,77.22
2017-04-21T07:15:43.926Z,77.42
2017-04-21T07:16:56.487Z,76.84
2017-04-21T07:18:09.069Z,77.32
2017-04-21T07:19:21.632Z,76.65
2017-04-21T07:20:34.161Z,76.27
2017-04-21T07:21:46.694Z,76.94
2017-04-21T07:22:58.945Z,76.98
2017-04-21T07:24:11.466Z,77.26
2017-04-21T07:25:24.012Z,76.88
2017-04-21T07:26:36.558Z,77.51
2017-04-21T07:27:49.100Z,77.74
2017-04-21T07:29:01.631Z,77.93
2017-04-21T07:30:14.170Z,76.69
2017-04-21T07:31:26.724Z,76.59
2017-04-21T07:32:38.941Z,76.69
2017-04-21T07:33:51.487Z,77.17
2017-04-21T07:35:04.049Z,77.17
2017-04-21T07:36:16.433Z,76.5
2017-04-21T07:37:28.991Z,76.69
2017-04-21T07:38:46.720Z,76.5
2017-04-21T07:40:00.016Z,76.82
2017-04-21T07:41:12.279Z,76.73
2017-04-21T07:42:24.504Z,76.25
2017-04-21T07:43:37.034Z,76.64
2017-04-21T07:44:49.583Z,76.44
2017-04-21T07:46:02.441Z,76.82
2017-04-21T07:47:14.684Z,76.54
2017-04-21T07:48:27.280Z,76.92
2017-04-21T07:49:39.812Z,76.64
2017-04-21T07:50:52.328Z,76.92
2017-04-21T07:52:04.575Z,76.16
2017-04-21T07:53:16.817Z,76.64
2017-04-21T07:54:29.371Z,76.64
2017-04-21T07:55:41.893Z,76.92
2017-04-21T07:56:54.401Z,76.92
2017-04-21T07:58:06.633Z,76.92
2017-04-21T07:59:18.870Z,77.4
2017-04-21T08:01:06.519Z,77.87
2017-04-21T08:03:02.841Z,77.87
2017-04-21T08:04:15.080Z,78.25
2017-04-21T08:05:27.330Z,78.73
2017-04-21T08:06:39.826Z,78.35
2017-04-21T08:07:51.576Z,78.64
2017-04-21T08:09:03.795Z,78.54
2017-04-21T08:10:16.064Z,78.64
2017-04-21T08:11:28.294Z,79.25
2017-04-21T08:12:40.522Z,79.15
2017-04-21T08:13:53.047Z,79.06
2017-04-21T08:15:05.597Z,79.44
2017-04-21T08:16:18.135Z,79.53
2017-04-21T08:17:30.043Z,79.53
2017-04-21T08:18:42.577Z,79.53
2017-04-21T08:19:55.080Z,79.53
2017-04-21T08:21:07.272Z,79.63
2017-04-21T08:22:19.789Z,79.44
2017-04-21T08:23:32.318Z,78.96
2017-04-21T08:24:44.820Z,78.77
2017-04-21T08:25:57.353Z,78.77
2017-04-21T08:27:09.959Z,78.2
2017-04-21T08:28:22.494Z,78.52
2017-04-21T08:29:35.094Z,78.23
2017-04-21T08:30:47.618Z,77.47
2017-04-21T08:32:00.108Z,78.33
2017-04-21T08:33:12.635Z,77.47
2017-04-21T08:34:25.160Z,77.28
2017-04-21T08:35:37.697Z,76.9
2017-04-21T08:36:50.224Z,76.33
2017-04-21T08:38:02.450Z,76.62
2017-04-21T08:39:14.386Z,76.42
2017-04-21T08:40:26.928Z,76.52
2017-04-21T08:41:39.128Z,76.23
2017-04-21T08:42:51.682Z,76.23
2017-04-21T08:44:04.204Z,76.33
2017-04-21T08:45:16.719Z,76.62
2017-04-21T08:46:29.194Z,76.52
2017-04-21T08:47:42.108Z,76.33
2017-04-21T08:48:54.733Z,76.23
2017-04-21T08:50:07.278Z,76.62
2017-04-21T08:51:49.694Z,76.14
2017-04-21T08:53:02.246Z,76.33
2017-04-21T08:54:14.488Z,76.33
2017-04-21T08:55:26.439Z,76.18
2017-04-21T08:56:38.981Z,75.7
2017-04-21T08:57:51.493Z,75.98
2017-04-21T08:59:03.723Z,75.98
2017-04-21T09:00:16.536Z,75.89
2017-04-21T09:01:28.757Z,75.98
2017-04-21T09:02:41.289Z,75.6
2017-04-21T09:03:53.516Z,75.6
2017-04-21T09:05:06.045Z,74.74
2017-04-21T09:06:18.294Z,74.98
2017-04-21T09:07:30.840Z,74.69
2017-04-21T09:08:43.086Z,74.11
2017-04-21T09:09:55.636Z,74.3
2017-04-21T09:11:07.885Z,73.73
2017-04-21T09:12:20.456Z,73.44
2017-04-21T09:13:32.392Z,73.63
2017-04-21T09:14:44.923Z,73.58
2017-04-21T09:15:56.861Z,73.58
2017-04-21T09:17:09.137Z,73.67
2017-04-21T09:18:21.389Z,73
2017-04-21T09:19:34.000Z,73.29
2017-04-21T09:20:46.370Z,73
2017-04-21T09:21:58.625Z,73.39
2017-04-21T09:23:11.234Z,73.23
2017-04-21T09:24:23.462Z,73.04
2017-04-21T09:25:35.689Z,73.8
2017-04-21T09:26:48.230Z,72.56
2017-04-21T09:28:00.734Z,72.47
2017-04-21T09:29:13.025Z,72.47
2017-04-21T09:30:25.538Z,72.66
2017-04-21T09:32:40.509Z,72.47
2017-04-21T09:35:36.452Z,72.47
2017-04-21T09:37:51.585Z,72.66
2017-04-21T09:39:05.391Z,72.47
2017-04-21T09:40:17.311Z,72.18
2017-04-21T09:41:29.835Z,72.75
2017-04-21T09:43:05.965Z,72.28
2017-04-21T09:45:08.342Z,72.56
2017-04-21T09:46:20.908Z,72.56
2017-04-21T09:47:32.851Z,72.28
2017-04-21T09:48:45.380Z,72.18
2017-04-21T09:49:57.946Z,72.37
2017-04-21T09:51:10.189Z,72.28
2017-04-21T10:00:43.321Z,70.75
2017-04-21T10:09:24.757Z,69.25
2017-04-21T10:10:37.306Z,69.76
2017-04-21T10:11:49.851Z,69.29
2017-04-21T10:13:02.418Z,69
2017-04-21T10:14:14.937Z,68.9
2017-04-21T10:15:27.439Z,68.13
2017-04-21T10:16:39.980Z,68.13
2017-04-21T10:17:52.210Z,68.27
2017-04-21T10:19:04.773Z,68.46
2017-04-21T10:20:17.355Z,67.98
2017-04-21T10:21:29.604Z,68.46
2017-04-21T10:22:42.135Z,67.88
2017-04-21T10:23:54.088Z,67.5
2017-04-21T10:25:06.327Z,67.11
2017-04-21T10:26:18.897Z,67.31
2017-04-21T10:27:31.223Z,67.44
2017-04-21T10:28:43.993Z,67.91
2017-04-21T10:29:56.547Z,68.21
2017-04-21T10:31:09.082Z,68.4
2017-04-21T10:32:21.624Z,68.21
2017-04-21T10:33:34.159Z,68.11
2017-04-21T10:34:46.418Z,66.77
2017-04-21T10:35:58.938Z,66.29
2017-04-21T10:37:11.494Z,67.05
2017-04-21T10:38:24.029Z,66.48
2017-04-21T10:39:36.587Z,66.71
2017-04-21T10:40:48.807Z,66.32
2017-04-21T10:42:01.355Z,66.32
2017-04-21T10:43:14.038Z,65.94
2017-04-21T10:44:26.938Z,65.36
2017-04-21T10:45:39.462Z,64.5
2017-04-21T10:46:52.007Z,64.4
2017-04-21T10:48:04.533Z,64.5
2017-04-21T10:49:16.778Z,64.79
2017-04-21T10:50:29.317Z,64.79
2017-04-21T10:51:41.863Z,64.89
2017-04-21T10:52:54.087Z,64.15
2017-04-21T10:54:06.601Z,64.05
2017-04-21T10:55:19.155Z,64.34
2017-04-21T10:56:31.718Z,64.15
2017-04-21T10:57:44.243Z,63.67
2017-04-21T10:58:57.122Z,64.15
2017-04-21T11:00:08.764Z,63.76
2017-04-21T11:01:21.330Z,63.29
2017-04-21T11:02:33.881Z,62.65
2017-04-21T11:03:46.402Z,62.55
2017-04-21T11:04:58.639Z,62.65
2017-04-21T11:06:11.171Z,62.36
2017-04-21T11:07:23.408Z,61.88
2017-04-21T11:08:35.653Z,62.74
2017-04-21T11:09:48.176Z,62.77
2017-04-21T11:11:00.401Z,62.58
2017-04-21T11:12:12.615Z,61.91
2017-04-21T11:13:24.889Z,61.33
2017-04-21T11:14:37.439Z,61.27
2017-04-21T11:15:49.977Z,60.31
2017-04-21T11:17:02.755Z,60.5
2017-04-21T11:18:15.173Z,59.66
2017-04-21T11:19:27.427Z,59.66
2017-04-21T11:20:39.962Z,59.09
2017-04-21T11:21:52.173Z,59.57
2017-04-21T11:23:04.706Z,59.38
2017-04-21T11:24:17.235Z,58.25
2017-04-21T11:25:29.744Z,58.15
2017-04-21T11:26:42.266Z,58.25
2017-04-21T11:27:54.802Z,57.68
2017-04-21T11:29:07.361Z,58.45
2017-04-21T11:30:19.932Z,58.06
2017-04-21T11:31:32.486Z,58.54
2017-04-21T11:32:44.880Z,58.18
2017-04-21T11:33:57.691Z,57.7
2017-04-21T11:35:10.246Z,58.18
2017-04-21T11:36:22.784Z,57.6
2017-04-21T11:37:35.332Z,57.6
2017-04-21T11:38:47.889Z,57.8
2017-04-21T11:40:00.148Z,57.15
2017-04-21T11:41:12.699Z,57.22
2017-04-21T11:42:25.220Z,56.55
2017-04-21T11:43:37.441Z,57.51
2017-04-21T11:44:49.964Z,57.45
2017-04-21T11:46:02.533Z,58.47
2017-04-21T11:47:15.054Z,58.02
2017-04-21T11:48:27.602Z,57.32
2017-04-21T11:49:40.141Z,57.45
2017-04-21T11:50:52.841Z,56.96
2017-04-21T11:52:05.429Z,56.77
2017-04-21T11:53:17.651Z,56.58
2017-04-21T11:54:30.182Z,56.96
2017-04-21T11:55:42.696Z,56.87
2017-04-21T11:56:54.941Z,58.31
2017-04-21T11:58:07.513Z,57.54
2017-04-21T11:59:20.037Z,57.54
2017-04-21T12:00:32.604Z,57.45
2017-04-21T12:01:45.139Z,56.38
2017-04-21T12:02:57.678Z,56.38
2017-04-21T12:04:10.250Z,56.58
2017-04-21T12:05:22.784Z,57.15
2017-04-21T12:06:35.309Z,56.77
2017-04-21T12:07:48.065Z,56.96
2017-04-21T12:09:00.322Z,57.64
2017-04-21T12:10:12.855Z,57.18
2017-04-21T12:11:25.392Z,57.47
2017-04-21T12:12:37.935Z,56.41
2017-04-21T12:13:50.485Z,57.28
2017-04-21T12:15:03.059Z,57.57
2017-04-21T12:16:15.286Z,57.57
2017-04-21T12:17:27.502Z,56.6
2017-04-21T12:18:40.050Z,56.12
2017-04-21T12:19:52.267Z,55.83
2017-04-21T12:21:04.531Z,55.83
2017-04-21T12:22:17.069Z,55.45
2017-04-21T12:23:29.610Z,55.45
2017-04-21T12:24:42.144Z,55.26
2017-04-21T12:25:54.365Z,55.26
2017-04-21T12:27:06.900Z,54.87
2017-04-21T12:28:19.146Z,54.68
2017-04-21T12:29:31.352Z,55.65
2017-04-21T12:30:43.888Z,56.51
2017-04-21T12:31:56.444Z,55.83
2017-04-21T12:33:08.395Z,55.65
2017-04-21T12:34:20.944Z,55.55
2017-04-21T12:35:33.464Z,55.83
2017-04-21T12:36:45.688Z,55.81
2017-04-21T12:37:58.207Z,55.62
2017-04-21T12:39:10.724Z,56.2
2017-04-21T12:40:23.119Z,56.2
2017-04-21T12:41:35.600Z,56.87
2017-04-21T12:42:48.143Z,57.06
2017-04-21T12:44:00.391Z,56.48
2017-04-21T12:45:12.961Z,56
2017-04-21T12:46:25.203Z,55.52
2017-04-21T12:47:37.750Z,56.2
2017-04-21T12:48:50.298Z,56.38
2017-04-21T12:50:02.244Z,56.67
2017-04-21T12:51:14.790Z,56.58
2017-04-21T12:52:26.750Z,56.96
2017-04-21T12:53:39.000Z,56.77
2017-04-21T12:54:51.524Z,56.38
2017-04-21T12:56:03.788Z,56.1
2017-04-21T12:57:15.995Z,56
2017-04-21T12:58:28.617Z,56.48
2017-04-21T12:59:40.879Z,56.48
2017-04-21T13:00:53.624Z,56.96
2017-04-21T13:02:05.901Z,57.54
2017-04-21T13:03:17.818Z,57.64
2017-04-21T13:04:30.359Z,57.15
2017-04-21T13:05:42.581Z,57.45
2017-04-21T13:06:55.116Z,56.96
2017-04-21T13:08:07.659Z,56.2
2017-04-21T13:09:19.932Z,56.2
2017-04-21T13:10:32.453Z,56
2017-04-21T13:11:44.984Z,56.1
2017-04-21T13:12:57.509Z,56.67
2017-04-21T13:14:10.064Z,56.58
2017-04-21T13:15:22.658Z,56.38
2017-04-21T13:16:34.905Z,56.2
2017-04-21T13:17:47.252Z,55.81
2017-04-21T13:18:59.785Z,55.23
2017-04-21T13:20:12.334Z,55.81
2017-04-21T13:21:24.888Z,55.78
2017-04-21T13:22:37.433Z,55.78
2017-04-21T13:23:49.679Z,56.16
2017-04-21T13:25:02.243Z,56.16
2017-04-21T13:26:14.494Z,56.45
2017-04-21T13:27:27.037Z,56.45
2017-04-21T13:28:39.556Z,56.26
2017-04-21T13:29:52.135Z,57.68
2017-04-21T13:31:04.657Z,57
2017-04-21T13:32:16.893Z,57.58
2017-04-21T13:33:29.473Z,57.58
2017-04-21T13:34:42.035Z,56.91
2017-04-21T13:35:54.564Z,57.39
2017-04-21T13:37:06.826Z,57.39
2017-04-21T13:38:19.781Z,56.91
2017-04-21T13:39:32.003Z,56.81
2017-04-21T13:40:44.545Z,57.2
2017-04-21T13:41:56.783Z,57.55
2017-04-21T13:43:09.311Z,57.93
2017-04-21T13:44:21.828Z,58.03
2017-04-21T13:45:34.049Z,58.13
2017-04-21T13:46:46.301Z,57.93
2017-04-21T13:47:58.836Z,58.7
2017-04-21T13:49:11.098Z,59.06
2017-04-21T13:50:23.353Z,60.02
2017-04-21T13:51:35.885Z,59.25
2017-04-21T13:52:48.420Z,59.06
2017-04-21T13:54:00.977Z,59.25
2017-04-21T13:55:13.516Z,59.25
2017-04-21T13:56:26.169Z,59.25
2017-04-21T13:57:38.240Z,59.03
2017-04-21T13:58:50.687Z,59.12
2017-04-21T14:00:02.950Z,59.51
2017-04-21T14:01:15.477Z,59.61
2017-04-21T14:02:27.121Z,59.38
2017-04-21T14:03:39.666Z,60.05
2017-04-21T14:04:52.267Z,60.35
2017-04-21T14:06:04.814Z,60.82
2017-04-21T14:07:17.375Z,61.46
2017-04-21T14:08:29.932Z,61.66
2017-04-21T14:09:42.167Z,61.94
2017-04-21T14:10:54.712Z,61.94
2017-04-21T14:12:06.983Z,62.39
2017-04-21T14:13:19.516Z,63.06
2017-04-21T14:14:32.058Z,63.92
2017-04-21T14:15:44.569Z,63.73
2017-04-21T14:16:57.120Z,64.69
2017-04-21T14:18:09.638Z,64.4
2017-04-21T14:19:21.867Z,63.92
2017-04-21T14:20:34.538Z,64.89
2017-04-21T14:21:46.772Z,64.69
2017-04-21T14:22:59.276Z,64.69
2017-04-21T14:24:11.848Z,64.69
2017-04-21T14:25:24.386Z,64.69
2017-04-21T14:26:36.913Z,64.02
2017-04-21T14:27:48.509Z,64.4
2017-04-21T14:29:01.059Z,64.34
2017-04-21T14:30:13.604Z,64.53
2017-04-21T14:31:25.828Z,64.25
2017-04-21T14:32:37.766Z,64.22
2017-04-21T14:33:50.290Z,64.02
2017-04-21T14:35:02.803Z,63.96
2017-04-21T14:36:15.040Z,64.53
2017-04-21T14:37:27.722Z,64.43
2017-04-21T14:38:39.677Z,64.63
2017-04-21T14:39:51.997Z,64.43
2017-04-21T14:41:04.510Z,64.43
2017-04-21T14:42:17.065Z,63.67
2017-04-21T14:43:29.282Z,63.29
2017-04-21T14:44:41.552Z,64.05
2017-04-21T14:45:53.791Z,64.15
2017-04-21T14:47:06.323Z,64.15
2017-04-21T14:48:18.843Z,63.96
2017-04-21T14:49:31.406Z,62.62
2017-04-21T14:50:43.938Z,62.52
2017-04-21T14:51:56.473Z,62.52
2017-04-21T14:53:09.002Z,62.52
2017-04-21T14:54:20.944Z,63.29
2017-04-21T14:55:33.159Z,63.09
2017-04-21T14:56:45.683Z,62.23
2017-04-21T14:57:58.236Z,62.13
2017-04-21T14:59:10.773Z,61.85
2017-04-21T15:00:23.341Z,61.94
2017-04-21T15:01:35.676Z,61.85
2017-04-21T15:02:48.218Z,61.63
2017-04-21T15:04:00.458Z,62.2
2017-04-21T15:05:12.400Z,62.49
2017-04-21T15:06:24.931Z,63.35
2017-04-21T15:07:37.145Z,63.16
2017-04-21T15:08:49.374Z,63.35
2017-04-21T15:10:01.914Z,63.54
2017-04-21T15:11:14.187Z,63.16
2017-04-21T15:12:26.112Z,62.49
2017-04-21T15:13:38.633Z,62.39
2017-04-21T15:14:51.176Z,62.87
2017-04-21T15:16:03.721Z,63.54
2017-04-21T15:17:15.942Z,62.49
2017-04-21T15:18:28.467Z,62.96
2017-04-21T15:19:41.089Z,62.87
2017-04-21T15:20:53.788Z,62.49
2017-04-21T15:22:06.329Z,62.77
2017-04-21T15:23:18.849Z,63.16
2017-04-21T15:24:31.393Z,62.59
2017-04-21T15:25:43.906Z,61.63
2017-04-21T15:26:56.437Z,62.49
2017-04-21T15:28:08.650Z,61.63
2017-04-21T15:29:21.200Z,60.67
2017-04-21T15:30:33.143Z,60.67
2017-04-21T15:31:45.673Z,60.76
2017-04-21T15:32:58.200Z,60.47
2017-04-21T15:34:10.735Z,60.28
2017-04-21T15:35:23.284Z,60.28
2017-04-21T15:36:35.829Z,60.28
2017-04-21T15:37:48.044Z,60.38
2017-04-21T15:39:00.572Z,60.09
2017-04-21T15:40:13.111Z,59.52
2017-04-21T15:41:25.660Z,59.52
2017-04-21T15:42:38.484Z,59.9
2017-04-21T15:43:51.145Z,60
2017-04-21T15:45:03.650Z,60.09
2017-04-21T15:46:16.214Z,60.19
2017-04-21T15:47:28.765Z,60.38
2017-04-21T15:48:41.292Z,60.19
2017-04-21T15:49:53.811Z,60.09
2017-04-21T15:51:06.374Z,60.09
2017-04-21T15:52:18.925Z,60.09
2017-04-21T15:53:31.147Z,60.28
2017-04-21T15:54:43.667Z,60.28
2017-04-21T15:55:56.190Z,60.09
2017-04-21T15:57:08.752Z,60.28
2017-04-21T15:58:21.006Z,59.87
2017-04-21T15:59:33.802Z,60.06